Time;durP1;ratioP1;P1;durP2;ratioP2;P2;SDS_P1;SDS_P2;PMS_P1;PMS_P2;Temp;Humidity;BMP_temperature;BMP_pressure;BME280_temperature;BME280_humidity;BME280_pressure;Samples;Min_cycle;Max_cycle;Signal;HPM_P1;HPM_P2
2021/07/04 00:01:58;;;;;;;;;12.00;12.00;;;;;22.80;89.86;100651.13;4979945;28;47008;-79
2021/07/04 00:04:23;;;;;;;;;13.50;10.50;;;;;22.76;90.27;100647.84;4986350;28;46945;-79
2021/07/04 00:06:49;;;;;;;;;11.00;11.00;;;;;22.83;90.11;100658.88;4985624;28;47009;-79
2021/07/04 00:09:14;;;;;;;;;15.00;10.75;;;;;22.74;90.47;100651.63;4982060;28;47032;-79
2021/07/04 00:11:40;;;;;;;;;12.00;8.00;;;;;22.74;90.53;100644.47;4992664;28;47132;-79
2021/07/04 00:14:05;;;;;;;;;11.75;10.75;;;;;22.73;90.57;100657.88;4978763;28;47103;-79
2021/07/04 00:16:31;;;;;;;;;17.00;13.25;;;;;22.71;90.78;100649.19;4979323;28;46974;-79
2021/07/04 00:18:56;;;;;;;;;12.50;9.25;;;;;22.70;90.58;100647.50;4979478;28;46977;-79
2021/07/04 00:21:22;;;;;;;;;10.25;9.25;;;;;22.72;90.98;100643.75;4987973;28;47144;-79
2021/07/04 00:23:47;;;;;;;;;11.75;9.25;;;;;22.73;90.45;100642.78;4991667;28;47638;-79
2021/07/04 00:26:14;;;;;;;;;10.00;9.50;;;;;22.74;90.59;100649.78;4997353;28;46965;-79
2021/07/04 00:28:39;;;;;;;;;10.50;10.00;;;;;22.76;91.11;100645.19;4991072;28;47173;-79
2021/07/04 00:31:05;;;;;;;;;11.75;9.75;;;;;22.79;90.70;100630.81;4989938;28;47040;-79
2021/07/04 00:33:30;;;;;;;;;11.75;9.50;;;;;22.85;90.59;100635.66;4998492;28;47012;-79
2021/07/04 00:35:56;;;;;;;;;11.25;10.00;;;;;22.86;90.48;100618.75;4998944;28;46838;-79
2021/07/04 00:38:22;;;;;;;;;13.00;11.75;;;;;22.91;90.98;100619.25;4998556;28;46771;-79
2021/07/04 00:40:48;;;;;;;;;10.75;8.75;;;;;22.91;91.14;100615.72;4999043;28;47043;-79
2021/07/04 00:43:13;;;;;;;;;12.25;11.50;;;;;22.90;90.82;100616.72;4997943;28;47028;-79
2021/07/04 00:45:40;;;;;;;;;15.50;10.00;;;;;22.93;90.57;100617.31;4998562;28;47100;-78
2021/07/04 00:48:05;;;;;;;;;11.00;9.25;;;;;22.91;90.76;100613.06;5000261;28;46947;-79
2021/07/04 00:50:32;;;;;;;;;11.50;10.50;;;;;22.98;91.03;100623.13;5002435;28;47014;-79
2021/07/04 00:53:00;;;;;;;;;10.25;9.50;;;;;22.94;90.63;100618.16;5001761;28;46771;-79
2021/07/04 00:55:25;;;;;;;;;11.00;9.75;;;;;22.91;90.88;100621.06;5002273;28;46981;-79
2021/07/04 00:57:51;;;;;;;;;10.25;9.75;;;;;22.88;90.80;100616.84;5001241;28;46830;-79
2021/07/04 01:00:20;;;;;;;;;12.75;10.25;;;;;22.89;90.57;100615.84;4984395;28;47009;-80
2021/07/04 01:02:45;;;;;;;;;13.25;9.75;;;;;22.91;90.49;100626.38;5001613;28;47908;-80
2021/07/04 01:05:13;;;;;;;;;10.50;10.25;;;;;22.81;90.77;100616.47;5001999;28;47024;-80
2021/07/04 01:07:39;;;;;;;;;11.25;9.50;;;;;22.76;91.05;100604.47;5001506;28;47063;-79
2021/07/04 01:10:07;;;;;;;;;11.50;8.50;;;;;22.76;90.82;100612.47;5000630;28;46929;-79
2021/07/04 01:12:34;;;;;;;;;11.00;9.75;;;;;22.71;90.31;100609.31;5000760;28;48201;-79
2021/07/04 01:15:00;;;;;;;;;10.50;8.75;;;;;22.66;90.80;100610.53;5001805;28;47144;-80
2021/07/04 01:17:27;;;;;;;;;11.25;10.75;;;;;22.72;90.60;100613.66;5001602;28;47072;-79
2021/07/04 01:19:52;;;;;;;;;11.00;11.00;;;;;22.62;90.65;100598.44;5001983;28;46815;-79
2021/07/04 01:22:19;;;;;;;;;12.75;11.00;;;;;22.66;90.18;100612.31;5000807;28;47007;-79
2021/07/04 01:24:45;;;;;;;;;10.50;8.50;;;;;22.58;90.51;100607.59;4991986;28;47020;-79
2021/07/04 01:27:10;;;;;;;;;11.25;9.50;;;;;22.55;90.72;100605.16;4981188;28;47018;-79
2021/07/04 01:29:36;;;;;;;;;12.50;10.50;;;;;22.55;90.65;100602.50;4982366;28;46903;-79
2021/07/04 01:32:02;;;;;;;;;9.25;7.75;;;;;22.52;90.35;100597.44;4993419;28;47145;-79
2021/07/04 01:34:28;;;;;;;;;10.25;8.00;;;;;22.45;89.99;100602.34;4981916;28;47013;-79
2021/07/04 01:36:53;;;;;;;;;10.00;7.00;;;;;22.40;90.63;100593.91;5000126;28;47536;-79
2021/07/04 01:39:19;;;;;;;;;11.50;8.00;;;;;22.45;89.87;100609.50;5001612;28;46963;-79
2021/07/04 01:41:44;;;;;;;;;7.75;7.75;;;;;22.37;90.57;100602.13;4983266;28;48423;-79
2021/07/04 01:44:10;;;;;;;;;10.25;7.50;;;;;22.36;90.18;100594.25;4990817;28;47080;-79
2021/07/04 01:46:36;;;;;;;;;10.75;8.50;;;;;22.38;90.19;100602.94;4996039;28;47132;-79
2021/07/04 01:49:02;;;;;;;;;8.75;7.75;;;;;22.23;90.21;100587.16;4981985;28;47118;-79
2021/07/04 01:51:27;;;;;;;;;10.00;9.75;;;;;22.30;90.55;100601.69;4981271;28;47667;-79
2021/07/04 01:53:53;;;;;;;;;10.25;8.00;;;;;22.19;90.66;100582.22;4963909;28;47119;-79
2021/07/04 01:56:19;;;;;;;;;9.25;7.00;;;;;22.17;90.29;100577.00;4996429;28;46972;-79
2021/07/04 01:58:44;;;;;;;;;9.75;8.00;;;;;22.13;90.39;100578.19;4995971;28;47306;-79
2021/07/04 02:01:10;;;;;;;;;7.50;6.00;;;;;22.10;90.84;100578.44;4981252;28;47882;-79
2021/07/04 02:03:35;;;;;;;;;10.75;9.25;;;;;22.06;90.85;100582.28;4981363;28;46824;-79
2021/07/04 02:06:01;;;;;;;;;8.25;7.75;;;;;22.12;90.57;100600.41;4981174;28;46976;-79
2021/07/04 02:08:26;;;;;;;;;8.50;6.75;;;;;22.10;90.54;100586.41;4981458;28;47256;-79
2021/07/04 02:10:52;;;;;;;;;7.25;7.25;;;;;22.03;90.32;100580.69;4981135;28;48108;-79
2021/07/04 02:13:18;;;;;;;;;8.75;8.00;;;;;22.04;90.37;100587.69;4969986;28;47070;-79
2021/07/04 02:15:44;;;;;;;;;10.00;8.50;;;;;21.95;91.04;100575.13;4981031;28;46965;-79
2021/07/04 02:18:15;;;;;;;;;8.50;8.00;;;;;21.96;91.04;100575.00;4981393;28;46989;-79
2021/07/04 02:20:52;;;;;;;;;12.50;9.75;;;;;21.91;90.64;100579.78;4980473;28;47001;-79
2021/07/04 02:23:28;;;;;;;;;7.75;7.75;;;;;21.95;91.37;100589.22;4981163;28;47000;-78
2021/07/04 02:25:55;;;;;;;;;9.25;9.00;;;;;21.94;91.18;100581.38;4978950;28;47055;-78
2021/07/04 02:28:22;;;;;;;;;10.25;9.00;;;;;21.96;91.11;100579.44;4980927;28;47032;-78
2021/07/04 02:30:50;;;;;;;;;10.50;8.50;;;;;22.00;91.61;100580.09;4987656;28;47211;-79
2021/07/04 02:33:17;;;;;;;;;7.00;7.00;;;;;21.99;91.19;100567.75;4992726;28;47090;-79
2021/07/04 02:35:51;;;;;;;;;9.75;8.50;;;;;22.05;91.38;100572.59;4981124;28;47175;-79
2021/07/04 02:38:17;;;;;;;;;9.00;7.75;;;;;22.11;91.66;100575.66;4981065;28;46855;-79
2021/07/04 02:40:43;;;;;;;;;8.25;8.25;;;;;22.14;91.06;100578.09;4980836;28;47271;-79
2021/07/04 02:43:11;;;;;;;;;8.25;6.25;;;;;22.16;90.94;100564.69;4980363;28;47044;-79
2021/07/04 02:45:37;;;;;;;;;7.00;6.25;;;;;22.16;90.97;100567.34;4992314;28;47024;-79
2021/07/04 02:48:04;;;;;;;;;8.75;7.50;;;;;22.20;90.96;100574.13;4984451;28;47041;-79
2021/07/04 02:50:30;;;;;;;;;7.50;7.50;;;;;22.25;91.31;100587.06;4980670;28;49509;-79
2021/07/04 02:52:55;;;;;;;;;10.50;7.25;;;;;22.29;91.59;100588.53;4980492;28;46906;-79
2021/07/04 02:55:22;;;;;;;;;6.50;6.50;;;;;22.31;91.41;100584.78;4986035;28;46931;-79
2021/07/04 02:57:48;;;;;;;;;7.00;7.00;;;;;22.25;90.80;100565.81;4993415;28;47050;-79
2021/07/04 03:00:17;;;;;;;;;6.75;5.50;;;;;22.31;91.18;100571.50;4969765;28;48540;-79
2021/07/04 03:02:43;;;;;;;;;7.50;6.00;;;;;22.38;90.77;100576.38;4980349;28;46833;-79
2021/07/04 03:05:10;;;;;;;;;8.50;8.00;;;;;22.43;91.19;100583.03;4980558;28;47043;-79
2021/07/04 03:07:36;;;;;;;;;9.75;6.00;;;;;22.44;90.74;100567.94;4980443;28;47287;-79
2021/07/04 03:10:04;;;;;;;;;7.25;7.00;;;;;22.43;90.60;100567.09;4979511;28;46961;-79
2021/07/04 03:12:29;;;;;;;;;8.50;6.75;;;;;22.45;90.91;100564.31;4991542;28;47789;-79
2021/07/04 03:14:56;;;;;;;;;11.25;10.00;;;;;22.43;91.28;100551.16;4991906;28;47023;-79
2021/07/04 03:17:21;;;;;;;;;9.25;9.25;;;;;22.45;90.42;100561.66;4981738;28;47011;-79
2021/07/04 03:19:47;;;;;;;;;6.00;5.00;;;;;22.43;90.70;100558.28;4980342;28;47018;-79
2021/07/04 03:22:12;;;;;;;;;8.50;7.50;;;;;22.51;90.12;100568.31;4980135;28;47165;-79
2021/07/04 03:24:40;;;;;;;;;7.25;7.00;;;;;22.51;90.16;100576.31;4980422;28;46902;-79
2021/07/04 03:27:07;;;;;;;;;7.75;7.00;;;;;22.55;90.62;100569.78;4993958;28;47170;-79
2021/07/04 03:29:32;;;;;;;;;6.75;6.75;;;;;22.55;90.06;100565.31;4990524;28;48084;-79
2021/07/04 03:31:58;;;;;;;;;6.25;6.25;;;;;22.62;89.62;100555.91;4979876;28;47264;-79
2021/07/04 03:34:23;;;;;;;;;7.25;6.25;;;;;22.66;89.79;100564.47;4980125;28;47033;-79
2021/07/04 03:36:49;;;;;;;;;6.25;5.50;;;;;22.65;90.34;100566.28;4983580;28;47107;-79
2021/07/04 03:39:14;;;;;;;;;6.75;6.75;;;;;22.65;91.35;100558.31;4979909;28;46922;-79
2021/07/04 03:41:40;;;;;;;;;7.50;7.50;;;;;22.60;93.95;100533.91;4979606;28;46989;-80
2021/07/04 03:44:05;;;;;;;;;10.00;6.50;;;;;22.41;96.54;100505.25;4979818;28;46893;-80
2021/07/04 03:46:31;;;;;;;;;8.00;7.00;;;;;22.36;98.37;100488.00;4995467;28;46912;-81
2021/07/04 03:48:56;;;;;;;;;9.25;8.50;;;;;37.80;100.00;100277.69;4979980;28;47247;-93
2021/07/04 03:51:22;;;;;;;;;9.00;7.75;;;;;39.42;100.00;100221.34;4978868;28;47018;-94
2021/07/04 03:53:48;;;;;;;;;9.00;9.00;;;;;49.48;100.00;100386.78;4990622;28;46819;-91
2021/07/04 03:56:14;;;;;;;;;9.00;9.00;;;;;48.33;100.00;100472.69;5022042;28;41656;-92
2021/07/04 03:58:39;;;;;;;;;9.50;8.75;;;;;-144.77;100.00;61770.03;5036531;28;30716;-91
2021/07/04 04:01:05;;;;;;;;;9.25;9.00;;;;;-144.77;100.00;61770.03;5030368;28;30471;-92
2021/07/04 04:03:30;;;;;;;;;9.25;7.50;;;;;-144.77;100.00;61770.03;5000493;28;35861;-93
2021/07/04 04:05:57;;;;;;;;;10.50;8.75;;;;;-144.77;100.00;61770.03;5015228;28;8838;-94
2021/07/04 04:08:23;;;;;;;;;8.25;7.25;;;;;43.66;100.00;100513.91;5004231;28;30617;-92
2021/07/04 04:10:49;;;;;;;;;6.25;5.75;;;;;43.96;100.00;100551.78;4987018;28;47046;-94
2021/07/04 04:13:14;;;;;;;;;7.50;7.50;;;;;43.57;100.00;100541.00;4978507;28;46998;-94
2021/07/04 04:15:40;;;;;;;;;7.75;7.00;;;;;38.80;100.00;100520.75;4982164;28;46930;-93
2021/07/04 04:18:06;;;;;;;;;5.00;4.25;;;;;43.52;100.00;100533.56;4988870;28;48058;-96
2021/07/04 04:20:32;;;;;;;;;6.50;5.75;;;;;37.79;100.00;100505.38;4980189;28;47017;-95
2021/07/04 04:22:58;;;;;;;;;8.00;6.75;;;;;37.43;100.00;100482.44;4998392;28;46858;-95
2021/07/04 04:25:23;;;;;;;;;5.75;5.75;;;;;36.73;100.00;100509.53;4996311;28;46880;-95
2021/07/04 04:27:49;;;;;;;;;6.75;6.00;;;;;36.44;100.00;100512.53;4978623;28;49655;-96
2021/07/04 04:30:15;;;;;;;;;7.50;7.00;;;;;37.97;100.00;100540.00;4980423;28;47320;-95
2021/07/04 04:32:40;;;;;;;;;5.50;5.50;;;;;39.07;100.00;100568.41;4998512;28;47040;-96
2021/07/04 04:35:08;;;;;;;;;6.50;4.75;;;;;41.32;100.00;100564.97;4982067;28;46853;-94
2021/07/04 04:37:34;;;;;;;;;8.75;5.00;;;;;39.95;100.00;100548.88;4998100;28;48605;-90
2021/07/04 04:39:59;;;;;;;;;8.25;5.50;;;;;39.91;100.00;100540.34;4982287;28;46891;-86
2021/07/04 04:42:25;;;;;;;;;5.50;5.50;;;;;43.82;100.00;100726.28;4979130;28;47132;-87
2021/07/04 04:44:51;;;;;;;;;4.00;4.00;;;;;42.75;100.00;100246.81;4998529;28;29365;-91
2021/07/04 04:47:16;;;;;;;;;6.00;5.50;;;;;41.40;100.00;100407.84;4995723;28;29620;-89
2021/07/04 04:49:42;;;;;;;;;4.50;4.50;;;;;41.40;100.00;100407.84;4995428;28;29462;-90
2021/07/04 04:52:07;;;;;;;;;6.25;4.00;;;;;39.59;100.00;100438.91;4983654;28;29426;-91
2021/07/04 04:54:33;;;;;;;;;6.00;6.00;;;;;37.64;100.00;100439.59;4995535;28;29333;-92
2021/07/04 04:57:05;;;;;;;;;6.75;5.50;;;;;46.05;100.00;100212.97;5004071;28;30187;-93
2021/07/04 04:59:33;;;;;;;;;7.00;6.00;;;;;-144.77;100.00;61770.03;5012161;28;29681;-92
2021/07/04 05:01:58;;;;;;;;;6.75;6.00;;;;;-144.77;100.00;61770.03;4995815;28;29429;-91
2021/07/04 05:04:24;;;;;;;;;7.00;6.00;;;;;-144.77;100.00;61770.03;4995840;28;29332;-92
2021/07/04 05:06:49;;;;;;;;;3.50;3.50;;;;;-144.77;100.00;61770.03;5014801;28;29229;-93
2021/07/04 05:09:14;;;;;;;;;4.25;4.25;;;;;-144.77;100.00;61770.03;5028464;28;8824;-95
2021/07/04 05:11:40;;;;;;;;;6.00;6.00;;;;;-144.77;100.00;61770.03;5016293;28;8811;-95
2021/07/04 05:14:06;;;;;;;;;4.75;4.25;;;;;-144.77;100.00;61770.03;5028567;28;8910;-95
2021/07/04 05:16:31;;;;;;;;;4.50;4.50;;;;;-144.77;100.00;61770.03;5025723;28;8835;-96
2021/07/04 05:18:58;;;;;;;;;5.25;4.75;;;;;-144.77;100.00;61770.03;5031347;28;8847;-96
2021/07/04 05:21:23;;;;;;;;;3.00;3.00;;;;;-144.77;100.00;61770.03;5020321;28;8816;-95
2021/07/04 05:23:49;;;;;;;;;5.75;4.50;;;;;-144.77;100.00;61770.03;5011433;28;8827;-92
2021/07/04 05:26:18;;;;;;;;;6.75;5.00;;;;;-144.77;100.00;61770.03;5016168;28;8835;-93
2021/07/04 05:28:44;;;;;;;;;5.25;4.50;;;;;-144.77;100.00;61770.03;5015465;28;8822;-93
2021/07/04 05:31:09;;;;;;;;;3.50;3.25;;;;;-144.77;100.00;61770.03;5028780;28;9568;-90
2021/07/04 05:33:35;;;;;;;;;4.50;3.50;;;;;-144.77;100.00;61770.03;5050368;28;8897;-92
2021/07/04 05:36:00;;;;;;;;;3.50;3.50;;;;;-144.77;100.00;61770.03;5065574;28;8875;-89
2021/07/04 05:38:31;;;;;;;;;5.25;4.50;;;;;-144.77;100.00;61770.03;5031975;28;8821;-87
2021/07/04 05:40:57;;;;;;;;;6.00;6.00;;;;;-144.77;100.00;61770.03;5033289;28;8806;-87
2021/07/04 05:43:23;;;;;;;;;3.75;3.75;;;;;-144.77;100.00;61770.03;5033113;28;8832;-88
2021/07/04 05:45:48;;;;;;;;;6.75;5.00;;;;;-144.77;100.00;61770.03;5020929;28;8828;-87
2021/07/04 05:48:14;;;;;;;;;5.75;5.50;;;;;-144.77;100.00;61770.03;5034874;28;8807;-87
2021/07/04 05:50:40;;;;;;;;;5.25;4.00;;;;;-144.77;100.00;61770.03;5028156;28;8843;-88
2021/07/04 05:53:05;;;;;;;;;6.50;5.75;;;;;-144.77;100.00;61770.03;5041816;28;8823;-87
2021/07/04 05:55:31;;;;;;;;;6.25;5.50;;;;;-144.77;100.00;61770.03;5018513;28;8787;-89
2021/07/04 05:57:57;;;;;;;;;5.25;5.25;;;;;-144.77;100.00;61770.03;5025493;28;9760;-87
2021/07/04 06:00:23;;;;;;;;;4.50;4.50;;;;;-144.77;100.00;61770.03;5040687;28;8824;-86
2021/07/04 06:02:49;;;;;;;;;5.75;4.75;;;;;-144.77;100.00;61770.03;5035338;28;8803;-90
2021/07/04 06:05:17;;;;;;;;;7.00;7.00;;;;;-144.77;100.00;61770.03;5043305;28;8793;-89
2021/07/04 06:07:42;;;;;;;;;6.00;6.00;;;;;-144.77;100.00;61770.03;5036152;28;8822;-88
2021/07/04 06:10:08;;;;;;;;;6.00;4.75;;;;;-144.77;100.00;61770.03;5037516;28;8829;-87
2021/07/04 06:12:34;;;;;;;;;8.00;6.75;;;;;-144.77;100.00;61770.03;5037494;28;8817;-89
2021/07/04 06:14:59;;;;;;;;;8.25;6.00;;;;;-144.77;100.00;61770.03;5038380;28;8920;-90
2021/07/04 06:17:25;;;;;;;;;6.50;5.50;;;;;-144.77;100.00;61770.03;5024772;28;8855;-90
2021/07/04 06:19:50;;;;;;;;;8.25;6.50;;;;;-144.77;100.00;61770.03;5037879;28;8891;-87
2021/07/04 06:22:16;;;;;;;;;5.50;5.25;;;;;-144.77;100.00;61770.03;5022614;28;8861;-88
2021/07/04 06:24:41;;;;;;;;;9.50;5.50;;;;;-144.77;100.00;61770.03;5037430;28;8867;-87
2021/07/04 06:27:07;;;;;;;;;5.00;5.00;;;;;-144.77;100.00;61770.03;5016136;28;8865;-88
2021/07/04 06:29:32;;;;;;;;;7.50;7.25;;;;;-144.77;100.00;61770.03;5030735;28;8820;-89
2021/07/04 06:31:58;;;;;;;;;5.50;4.50;;;;;-144.77;100.00;61770.03;5034764;28;8913;-87
2021/07/04 06:34:23;;;;;;;;;7.00;7.00;;;;;-144.77;100.00;61770.03;5014196;28;8824;-87
2021/07/04 06:36:49;;;;;;;;;7.25;5.50;;;;;-144.77;100.00;61770.03;5036815;28;8908;-88
2021/07/04 06:39:14;;;;;;;;;9.50;8.25;;;;;-144.77;100.00;61770.03;5017951;28;8934;-90
2021/07/04 06:41:40;;;;;;;;;5.25;4.25;;;;;-144.77;100.00;61770.03;5030169;28;8878;-88
2021/07/04 06:44:05;;;;;;;;;6.25;5.50;;;;;-144.77;100.00;61770.03;5019544;28;9635;-86
2021/07/04 06:46:31;;;;;;;;;7.50;5.75;;;;;-144.77;100.00;61770.03;5037291;28;8841;-86
2021/07/04 06:48:57;;;;;;;;;5.00;5.00;;;;;-144.77;100.00;61770.03;5037457;28;8809;-86
2021/07/04 06:51:23;;;;;;;;;6.00;5.00;;;;;-144.77;100.00;61770.03;5035992;28;8820;-88
2021/07/04 06:53:49;;;;;;;;;6.25;5.50;;;;;-144.77;100.00;61770.03;5031636;28;9552;-87
2021/07/04 06:56:14;;;;;;;;;6.00;5.00;;;;;-144.77;100.00;61770.03;5037156;28;8814;-85
2021/07/04 06:58:40;;;;;;;;;8.00;7.50;;;;;-144.77;100.00;61770.03;5026929;28;9820;-85
2021/07/04 07:01:08;;;;;;;;;6.00;4.00;;;;;-144.77;100.00;61770.03;5032546;28;8815;-85
2021/07/04 07:03:34;;;;;;;;;7.75;5.00;;;;;-144.77;100.00;61770.03;5017607;28;9864;-86
2021/07/04 07:05:59;;;;;;;;;5.75;4.75;;;;;-144.77;100.00;61770.03;5040629;28;8805;-86
2021/07/04 07:08:25;;;;;;;;;7.25;4.00;;;;;-144.77;100.00;61770.03;5037407;28;8849;-87
2021/07/04 07:10:50;;;;;;;;;5.00;5.00;;;;;-144.77;100.00;61770.03;5032081;28;8748;-86
2021/07/04 07:13:16;;;;;;;;;5.50;4.50;;;;;-144.77;100.00;61770.03;5036690;28;8857;-85
2021/07/04 07:15:44;;;;;;;;;4.75;4.75;;;;;-144.77;100.00;61770.03;5037020;28;8909;-87
2021/07/04 07:18:10;;;;;;;;;3.00;3.00;;;;;-144.77;100.00;61770.03;5036964;28;8883;-85
2021/07/04 07:20:37;;;;;;;;;6.75;4.75;;;;;-144.77;100.00;61770.03;5032443;28;9074;-87
2021/07/04 07:23:02;;;;;;;;;5.50;4.75;;;;;-144.77;100.00;61770.03;5044766;28;8795;-83
2021/07/04 07:25:28;;;;;;;;;5.00;5.00;;;;;-144.77;100.00;61770.03;5030009;28;8874;-85
2021/07/04 07:27:53;;;;;;;;;5.75;5.75;;;;;-144.77;100.00;61770.03;5016637;28;8882;-83
2021/07/04 07:30:21;;;;;;;;;4.75;4.75;;;;;-144.77;100.00;61770.03;5038732;28;8913;-83
2021/07/04 07:32:47;;;;;;;;;4.00;4.00;;;;;-144.77;100.00;61770.03;5018096;28;29564;-82
2021/07/04 07:35:13;;;;;;;;;6.00;5.75;;;;;-144.77;100.00;61770.03;4991799;28;29506;-83
2021/07/04 07:37:40;;;;;;;;;5.75;5.00;;;;;-144.77;100.00;61770.03;5008869;28;29517;-83
2021/07/04 07:40:06;;;;;;;;;5.00;4.25;;;;;-144.77;100.00;61770.03;5016254;28;29299;-84
2021/07/04 07:42:32;;;;;;;;;6.00;4.00;;;;;-144.77;100.00;61770.03;5002026;28;29533;-83
2021/07/04 07:44:57;;;;;;;;;4.50;4.00;;;;;-144.77;100.00;61770.03;5003741;28;29523;-84
2021/07/04 07:47:23;;;;;;;;;4.50;4.50;;;;;-144.77;100.00;61770.03;5002426;28;29471;-82
2021/07/04 07:49:48;;;;;;;;;4.00;4.00;;;;;-144.77;100.00;61770.03;5016170;28;29523;-82
2021/07/04 07:52:14;;;;;;;;;6.00;6.00;;;;;-144.77;100.00;61770.03;5042656;28;8823;-84
2021/07/04 07:54:40;;;;;;;;;7.00;6.00;;;;;-144.77;100.00;61770.03;5045142;28;8791;-84
2021/07/04 07:57:07;;;;;;;;;3.75;3.75;;;;;-144.77;100.00;61770.03;5038767;28;8829;-83
2021/07/04 07:59:34;;;;;;;;;5.75;4.25;;;;;-144.77;100.00;61770.03;5021641;28;8827;-83
2021/07/04 08:02:00;;;;;;;;;4.00;3.75;;;;;-144.77;100.00;61770.03;5002528;28;9036;-83
2021/07/04 08:04:26;;;;;;;;;5.00;4.00;;;;;-144.77;100.00;61770.03;5028989;28;8813;-83
2021/07/04 08:06:51;;;;;;;;;4.50;4.50;;;;;-144.77;100.00;61770.03;5033775;28;8841;-83
2021/07/04 08:09:17;;;;;;;;;5.25;4.75;;;;;-144.77;100.00;61770.03;5035213;28;8802;-83
2021/07/04 08:11:43;;;;;;;;;5.50;5.00;;;;;-144.77;100.00;61770.03;5034247;28;8848;-86
2021/07/04 08:14:09;;;;;;;;;3.50;3.50;;;;;-144.77;100.00;61770.03;5033042;28;8757;-84
2021/07/04 08:16:35;;;;;;;;;4.75;3.00;;;;;-144.77;100.00;61770.03;5033964;28;8798;-86
2021/07/04 08:19:00;;;;;;;;;3.75;3.50;;;;;-144.77;100.00;61770.03;5025988;28;8790;-82
2021/07/04 08:21:29;;;;;;;;;5.75;3.75;;;;;-144.77;100.00;61770.03;5029606;28;8883;-82
2021/07/04 08:23:56;;;;;;;;;2.75;2.75;;;;;-144.77;100.00;61770.03;5034576;28;8834;-84
2021/07/04 08:26:23;;;;;;;;;5.50;4.00;;;;;-144.77;100.00;61770.03;5031437;28;8829;-82
2021/07/04 08:28:49;;;;;;;;;4.25;4.25;;;;;-144.77;100.00;61770.03;5036457;28;8778;-80
2021/07/04 08:31:14;;;;;;;;;5.00;5.00;;;;;-144.77;100.00;61770.03;5039057;28;8855;-82
2021/07/04 08:33:41;;;;;;;;;4.75;3.25;;;;;-144.77;100.00;61770.03;5037014;28;8849;-85
2021/07/04 08:36:07;;;;;;;;;7.00;3.50;;;;;-144.77;100.00;61770.03;5032690;28;8828;-86
2021/07/04 08:38:32;;;;;;;;;4.00;3.50;;;;;-144.77;100.00;61770.03;5032926;28;8807;-83
2021/07/04 08:40:58;;;;;;;;;3.00;3.00;;;;;-144.77;100.00;61770.03;5041831;28;8782;-83
2021/07/04 08:43:36;;;;;;;;;3.50;3.50;;;;;-144.77;100.00;61770.03;5028729;28;8886;-85
2021/07/04 08:46:04;;;;;;;;;4.00;4.00;;;;;-144.77;100.00;61770.03;5030552;28;8758;-83
2021/07/04 08:48:32;;;;;;;;;3.00;3.00;;;;;-144.77;100.00;61770.03;5041597;28;8738;-83
2021/07/04 08:50:58;;;;;;;;;4.25;3.00;;;;;-144.77;100.00;61770.03;5011727;28;8798;-80
2021/07/04 08:53:23;;;;;;;;;2.00;2.00;;;;;-144.77;100.00;61770.03;5030952;28;9577;-84
2021/07/04 08:55:49;;;;;;;;;1.00;1.00;;;;;-144.77;100.00;61770.03;5036895;28;8794;-84
2021/07/04 08:58:20;;;;;;;;;2.50;1.00;;;;;-144.77;100.00;61770.03;5041900;28;8815;-87
2021/07/04 09:01:20;;;;;;;;;1.00;1.00;;;;;-144.77;100.00;61770.03;5034451;28;8789;-82
2021/07/04 09:03:49;;;;;;;;;2.00;2.00;;;;;-144.77;100.00;61770.03;5034279;28;9687;-83
2021/07/04 09:06:37;;;;;;;;;1.00;1.00;;;;;-144.77;100.00;61770.03;5027400;28;8867;-82
2021/07/04 09:09:25;;;;;;;;;1.00;1.00;;;;;-144.77;100.00;61770.03;5042783;28;8801;-80
2021/07/04 09:12:02;;;;;;;;;1.00;1.00;;;;;-144.77;100.00;61770.03;5032644;28;8817;-83
2021/07/04 09:14:38;;;;;;;;;2.00;2.00;;;;;-144.77;100.00;61770.03;5046212;28;9783;-83
2021/07/04 09:17:07;;;;;;;;;1.00;1.00;;;;;-144.77;100.00;61770.03;5043634;28;8824;-82
2021/07/04 09:19:32;;;;;;;;;2.00;0.50;;;;;-144.77;100.00;61770.03;5017903;28;9756;-80
2021/07/04 09:22:06;;;;;;;;;0.50;0.50;;;;;-144.77;100.00;61770.03;5034938;28;8817;-81
2021/07/04 09:24:37;;;;;;;;;1.00;1.00;;;;;-144.77;100.00;61770.03;5038853;28;9722;-84
2021/07/04 09:27:05;;;;;;;;;0.50;0.50;;;;;-144.77;100.00;61770.03;5020685;28;8806;-81
2021/07/04 09:29:53;;;;;;;;;1.00;1.00;;;;;-144.77;100.00;61770.03;5020272;28;8791;-84
2021/07/04 09:32:26;;;;;;;;;0.75;0.75;;;;;-144.77;100.00;61770.03;5026348;28;8788;-82
2021/07/04 09:35:10;;;;;;;;;1.00;1.00;;;;;-144.77;100.00;61770.03;5036272;28;8915;-84
2021/07/04 09:37:37;;;;;;;;;2.75;1.00;;;;;-144.77;100.00;61770.03;5022322;28;8910;-85
2021/07/04 09:40:26;;;;;;;;;1.25;1.00;;;;;-144.77;100.00;61770.03;5018876;28;8866;-83
2021/07/04 09:42:57;;;;;;;;;1.25;0.75;;;;;-144.77;100.00;61770.03;5017995;28;8795;-83
2021/07/04 09:45:26;;;;;;;;;1.00;1.00;;;;;-144.77;100.00;61770.03;5027231;28;9717;-83
2021/07/04 09:47:58;;;;;;;;;2.50;2.00;;;;;-144.77;100.00;61770.03;5025297;28;8829;-84
2021/07/04 09:50:25;;;;;;;;;1.00;1.00;;;;;-144.77;100.00;61770.03;5020401;28;8801;-84
2021/07/04 09:52:58;;;;;;;;;2.00;2.00;;;;;-144.77;100.00;61770.03;5038498;28;8746;-85
2021/07/04 09:55:24;;;;;;;;;2.00;2.00;;;;;-144.77;100.00;61770.03;5022362;28;8803;-85
2021/07/04 09:58:01;;;;;;;;;2.75;2.00;;;;;-144.77;100.00;61770.03;5018114;28;8803;-85
2021/07/04 10:00:29;;;;;;;;;1.75;1.75;;;;;-144.77;100.00;61770.03;5018280;28;8792;-85
2021/07/04 10:03:11;;;;;;;;;1.00;1.00;;;;;-144.77;100.00;61770.03;5037689;28;8813;-87
2021/07/04 10:05:59;;;;;;;;;1.00;1.00;;;;;-144.77;100.00;61770.03;5022753;28;8780;-84
2021/07/04 10:08:32;;;;;;;;;1.50;1.50;;;;;-144.77;100.00;61770.03;5018460;28;8752;-85
2021/07/04 10:11:05;;;;;;;;;1.75;1.75;;;;;-144.77;100.00;61770.03;5024549;28;8805;-84
2021/07/04 10:13:32;;;;;;;;;3.00;2.00;;;;;-144.77;100.00;61770.03;5037654;28;8819;-82
2021/07/04 10:15:59;;;;;;;;;1.00;0.00;;;;;-144.77;100.00;61770.03;5037724;28;9746;-83
2021/07/04 10:18:25;;;;;;;;;1.25;1.00;;;;;-144.77;100.00;61770.03;5023016;28;8796;-82
2021/07/04 10:20:52;;;;;;;;;3.50;2.00;;;;;-144.77;100.00;61770.03;5022204;28;8815;-83
2021/07/04 10:23:23;;;;;;;;;1.50;1.50;;;;;-144.77;100.00;61770.03;5022536;28;8787;-85
2021/07/04 10:25:58;;;;;;;;;2.75;2.75;;;;;-144.77;100.00;61770.03;5013895;28;8791;-85
2021/07/04 10:28:38;;;;;;;;;2.25;1.75;;;;;-144.77;100.00;61770.03;5025093;28;8831;-84
2021/07/04 10:31:09;;;;;;;;;3.00;2.00;;;;;-144.77;100.00;61770.03;5019826;28;8938;-84
2021/07/04 10:33:35;;;;;;;;;2.00;2.00;;;;;-144.77;100.00;61770.03;5036033;28;8781;-85
2021/07/04 10:36:13;;;;;;;;;2.00;2.00;;;;;-144.77;100.00;61770.03;5034115;28;8914;-85
2021/07/04 10:38:55;;;;;;;;;4.00;2.00;;;;;-144.77;100.00;61770.03;5037662;28;8801;-85
2021/07/04 10:41:28;;;;;;;;;3.00;1.50;;;;;-144.77;100.00;61770.03;5026264;28;8846;-84
2021/07/04 10:44:10;;;;;;;;;3.00;2.00;;;;;-144.77;100.00;61770.03;5032011;28;8906;-84
2021/07/04 10:46:42;;;;;;;;;4.25;2.75;;;;;-144.77;100.00;61770.03;5037311;28;8901;-84
2021/07/04 10:49:17;;;;;;;;;2.00;2.00;;;;;-144.77;100.00;61770.03;5035149;28;8796;-85
2021/07/04 10:52:07;;;;;;;;;1.00;1.00;;;;;-144.77;100.00;61770.03;5025262;28;8811;-84
2021/07/04 10:54:44;;;;;;;;;3.00;2.00;;;;;-144.77;100.00;61770.03;5034631;28;8830;-83
2021/07/04 10:57:22;;;;;;;;;4.00;1.50;;;;;-144.77;100.00;61770.03;5036727;28;8802;-85
2021/07/04 11:00:00;;;;;;;;;5.00;3.00;;;;;-144.77;100.00;61770.03;5025069;28;8819;-84
2021/07/04 11:02:58;;;;;;;;;2.50;1.25;;;;;-144.77;100.00;61770.03;5024944;28;8758;-84
2021/07/04 11:05:36;;;;;;;;;2.00;2.00;;;;;-144.77;100.00;61770.03;5036954;28;8839;-81
2021/07/04 11:08:01;;;;;;;;;2.75;2.00;;;;;-144.77;100.00;61770.03;5023275;28;8922;-83
2021/07/04 11:10:34;;;;;;;;;2.00;2.00;;;;;-144.77;100.00;61770.03;5024560;28;8894;-83
2021/07/04 11:13:09;;;;;;;;;2.00;2.00;;;;;-144.77;100.00;61770.03;5043938;28;8844;-84
2021/07/04 11:15:39;;;;;;;;;3.25;1.75;;;;;-144.77;100.00;61770.03;5029313;28;8789;-83
2021/07/04 11:18:08;;;;;;;;;1.75;1.00;;;;;-144.77;100.00;61770.03;5022399;28;8792;-83
2021/07/04 11:20:39;;;;;;;;;2.00;1.50;;;;;-144.77;100.00;61770.03;5019879;28;8779;-82